Sei sulla pagina 1di 3

VAL DI NON BIKE

CAVARENO (TN) 26/09/2021


UNICO (45 KM)

Pos Nr. Nominativo Atleta G Nato il Cat Pos Nome Squadra Tempo Gap Km/h
1 13 FRUET Martino M 1977 OPEN 1 TEAM LAPIERRE - TRENTINO - ALE' 01:41:54.24 - 26,496
2 8 WOHLGEMUTH Michael M 1998 OPEN 2 NEW BIKE 2008 RACING TEAM 01:42:48.49 +54 26,262
3 20 ALLODI Lorenzo M 2001 OPEN 3 NEW BIKE 2008 RACING TEAM 01:44:44.00 +2:49 25,780
4 1 RIGHETTINI Andrea M 1992 OPEN 4 OLYMPIA FACTORY TEAM 01:46:34.21 +4:39 25,335
5 15 FANTINATO Kevin M 1999 OPEN 5 TEAM BSR 01:46:35.06 +4:40 25,332
6 140 DEPAUL Gabriele M 1988 M1 1 TEAM SPACEBIKES 01:46:36.31 +4:42 25,327
7 80 ZAMBONI Andrea M 1982 M2 1 CARINA - BRAO CAFFE' 01:46:37.06 +4:42 25,324
8 78 VERRA Manuel M 1988 M1 2 FASSA BIKE 01:48:11.82 +6:17 24,954
9 79 D'AGOSTINO Rosario M 1991 M1 3 GS MADONIE BIKE 01:49:11.07 +7:16 24,729
10 82 PINTARELLI Simone M 1985 M2 2 POLISPORTIVA BERSNTOL A.DILETTANTI 01:49:11.82 +7:17 24,726
11 91 PANIZ Luca M 1975 M4 1 TEAM SPACEBIKES 01:50:28.32 +8:34 24,441
12 5 SCHWEIGGL Johannes M 1987 OPEN 6 RH RACING KRONPLATZKING 01:50:49.32 +8:55 24,363
13 81 CLAUSER Andrea M 1985 M2 3 ASD CHERO GROUP TEAM SFRENATI 01:50:51.57 +8:57 24,355
14 4 RISATTI Nicola M 1985 OPEN 7 ASD CHERO GROUP TEAM SFRENATI 01:51:24.08 +9:29 24,237
15 6 PALLAORO Christian M 1984 OPEN 8 TEAM BSR 01:51:24.83 +9:30 24,234
16 30 OBWEXER Manuel M 2003 JU 1 AMATEUR BIKE CLUB KLAUSEN 01:52:10.58 +10:16 24,069
17 73 BALDI Manuel M 1991 M1 4 TEAM TODESCO 01:52:10.83 +10:16 24,068
18 76 DE BERNARDIN Giulio M 1998 ELMT 1 ASD SWATT CLUB 01:52:12.33 +10:18 24,063
19 164 CASNA Loris M 1985 M2 4 CARINA - BRAO CAFFE' 01:53:07.83 +11:13 23,866
20 83 FORNI Alessandro M 1980 M3 1 ASD CHERO GROUP TEAM SFRENATI 01:53:12.08 +11:17 23,851
21 74 PEDROTTI Thomas M 1990 M1 5 ASD CHERO GROUP TEAM SFRENATI 01:53:24.83 +11:30 23,807
22 77 PIZZOLATO Christian M 1999 ELMT 2 PAVANELLO RACING TEAM 01:53:28.83 +11:34 23,793
23 85 SEGATA Claudio M 1973 M4 2 TEAM TODESCO 01:53:49.33 +11:55 23,721
24 146 BRACCHI Michele M 2001 ELMT 3 ALTA VALTELLINA BIKE 01:53:53.58 +11:59 23,706
25 14 TALENTO Mattia M 1995 OPEN 9 TABROS RACING TEAM 01:54:24.09 +12:29 23,601
26 28 BIANCHI Stefano M 2004 JU 2 TEAM MANUEL BIKE FRM 01:54:27.84 +12:33 23,588
27 106 TAVERNA Elia M 1985 M2 5 ASD BIKE AND FUN TEAM 01:55:09.59 +13:15 23,446
28 86 LUDWIG Stefan M 1971 M5 1 TEAM BSR 01:55:51.09 +13:56 23,306
29 19 MANTOVANI Sebastiano M 1999 OPEN 10 OMAP CICLI ANDREIS 01:56:59.10 +15:04 23,080
30 90 ZANNI Ivan M 1968 M5 2 TEAM SILDOM GARDA 01:57:00.60 +15:06 23,075
31 185 BERTOLDI Marco M 1983 M2 6 SC PERGINE 01:57:40.10 +15:45 22,946
32 84 FLARER Tobias M 1977 M3 2 SC MERAN ZORZI KÄLTETECHNIK 01:57:50.60 +15:56 22,912
33 222 MAZZARINI Emiliano M 1976 M4 3 ASD CHERO GROUP TEAM SFRENATI 01:57:50.60 +15:56 22,912
34 16 RABENSTEINER Alex M 2001 OPEN 11 RH RACING KRONPLATZKING 01:58:20.85 +16:26 22,814
35 132 VICENZI Daniel M 1994 ELMT 4 ASD CHERO GROUP TEAM SFRENATI 01:59:51.85 +17:57 22,525
36 176 DI GERONIMO Michele M 1966 M6 1 CARINA - BRAO CAFFE' 02:00:07.86 +18:13 22,475
37 230 BIASIOLI Andrea M 1983 M2 7 TEAM TODESCO 02:00:07.86 +18:13 22,475
38 166 SANTACROCE Leopoldo aldo M 1978 M3 3 TEAM ZANOLINI BIKE 02:01:22.11 +19:27 22,246
39 45 PIANA Debora F 1989 DE 1 TEAM CINGOLANI 02:01:32.36 +19:38 22,215
40 71 BIRELLO Paolo M 1962 M6 2 GS SCAVEZZON SQUADRA CORSE 02:01:44.11 +19:49 22,179
41 156 MORA Carlo M 1969 M5 3 ACD BIK BIKE 02:02:15.36 +20:21 22,085
42 245 ANDREIS Agostino M 1976 M4 4 OMAP CICLI ANDREIS 02:04:01.62 +22:07 21,769
43 216 CARNEVALI Mattia M 1997 ELMT 5 ASD CHERO GROUP TEAM SFRENATI 02:04:03.37 +22:09 21,764
44 211 VICENTINI Lorenzo M 1980 M3 4 POLISPORTIVA BERSNTOL A.DILETTANTI 02:04:04.62 +22:10 21,761
45 87 DEFLORIAN Willi M 1967 M5 4 ASD PELLEGRIN CYCLING TEAM 02:04:07.37 +22:13 21,753
46 232 BONDIONI Tiziano M 1981 M3 5 NIARDO FOR BIKE 02:04:09.87 +22:15 21,745
47 93 LEONARDI Andrea M 1997 ELMT 6 KTM TORRE BIKE 02:04:23.12 +22:28 21,707
48 118 GUIZZO Andrea M 1992 ELMT 7 PAVANELLO RACING TEAM 02:04:46.62 +22:52 21,639
49 152 TORMEN Andrea M 1978 M3 6 AVIS GLS 02:05:14.12 +23:19 21,559
50 48 PIETROVITO Vittoria F 2003 DJ 1 OLTREFERSINA MTB 02:05:24.12 +23:29 21,531
51 26 PIANTONI Andrea M 2003 JU 3 TEAM MANUEL BIKE FRM 02:05:26.87 +23:32 21,523
52 18 VIRGILI Giacomo M 2000 OPEN 12 ASD CHERO GROUP TEAM SFRENATI 02:07:01.13 +25:06 21,257
53 173 MUNARO Alessandro M 1963 M6 3 OMAP CICLI ANDREIS 02:07:17.13 +25:22 21,212
54 47 PERETTI Claudia F 1998 DE 2 OLYMPIA FACTORY TEAM 02:07:23.38 +25:29 21,195
55 246 VASSANELLI Davide M 1990 M1 6 ASD VENTI-VENTI BIKE TEAM 02:07:27.13 +25:32 21,184
56 165 NADALINI Mirco M 1974 M4 5 ASD CHERO GROUP TEAM SFRENATI 02:07:27.88 +25:33 21,182
57 206 LEONARDI Stefano M 1998 ELMT 8 TEAM LAPIERRE - TRENTINO - ALE' 02:07:42.88 +25:48 21,141
58 88 BRUSCHETTI Sandro M 1964 M6 4 ASD BICI E SPORT 02:08:15.88 +26:21 21,050
59 149 POZZERA Cristian M 1978 M3 7 TEAM ECOR MTB SCHIO 02:08:16.39 +26:22 21,049
60 171 MIORI Michele M 1970 M5 5 TRENTINO BIKE TEAM 02:08:28.13 +26:33 21,017

Classifiche Elaborate da SMS Sport


Pag. 1/3
VAL DI NON BIKE
CAVARENO (TN) 26/09/2021
UNICO (45 KM)

Pos Nr. Nominativo Atleta G Nato il Cat Pos Nome Squadra Tempo Gap Km/h
61 129 LEONI Claudio M 1982 M2 8 KTM TORRE BIKE 02:08:48.89 +26:54 20,960
62 29 TSCHOERNER Samuel markus M 2004 JU 4 SUNSHINE RACERS ASV NALS 02:08:52.89 +26:58 20,949
63 242 DI PIETRO Paolo M 1974 M4 6 SUPREME CYCLING TEAM 02:09:06.89 +27:12 20,912
64 151 CASACCIO Orazio M 1963 M6 5 ASD SC TELGATE 02:09:31.14 +27:36 20,846
65 89 MEGERA Tiziano M 1965 M6 6 GS SCAVEZZON SQUADRA CORSE 02:09:31.15 +27:36 20,846
66 221 PICCOLRUAZ Simon M 1997 ELMT 9 INDIVIDUALE 02:09:50.39 +27:56 20,795
67 223 FIORIO Alessandro M 1978 M3 8 ASD TEAM BERTASI 02:09:54.64 +28:00 20,784
68 143 CAVION Andrea M 1970 M5 6 TEAM ECOR MTB SCHIO 02:09:55.89 +28:01 20,780
69 126 FASAN Federico M 1978 M3 9 ASD MB TEAM MACRO 02:09:58.89 +28:04 20,772
70 127 BACCHIOCCHI Valerio M 1984 M2 9 FASSA BIKE 02:10:30.14 +28:35 20,689
71 224 GREGORI Nicola M 1994 ELMT 10 ASD PREDAIA BIKE TEAM 02:11:12.64 +29:18 20,578
72 155 TAVONATTI Diego M 1979 M3 10 ASD PREDAIA BIKE TEAM 02:11:12.85 +29:18 20,577
73 169 PASA Ivan M 1979 M3 11 ASD CICLI ROSSI 02:11:38.14 +29:43 20,511
74 214 GRANDI Andrea M 1988 M1 7 OMAP CICLI ANDREIS 02:11:41.15 +29:46 20,503
75 225 TASIN Maurizio M 1969 M5 7 SUPREME CYCLING TEAM 02:11:49.90 +29:55 20,481
76 201 ZANI John patrick M 1991 M1 8 TEAM EXECUTIVE 02:12:09.15 +30:14 20,431
77 248 FESTI Paolo M 1976 M4 7 TEAM EXECUTIVE 02:12:09.15 +30:14 20,431
78 135 ANDREATTA Cristian M 1994 ELMT 11 MTB CLUB GAERNE 02:17:34.42 +35:40 19,626
79 109 CARBOGNANI Arnaldo M 1976 M4 8 ASD BIKE AND FUN TEAM 02:17:51.67 +35:57 19,585
80 220 CANNIZZARO Riccardo M 1975 M4 9 SUPREME CYCLING TEAM 02:18:38.17 +36:43 19,475
81 219 LANFREDI Nicolas M 1992 ELMT 12 ASD CHERO GROUP TEAM SFRENATI 02:19:10.17 +37:15 19,401
82 174 DALLA PAOLA Mario M 1956 M8 1 TEAM ZANOLINI BIKE 02:19:16.67 +37:22 19,386
83 231 VENDRA Emanuele M 1990 M1 9 TEAM TODESCO 02:20:06.67 +38:12 19,270
84 139 LOLLATO Sergio M 1966 M6 7 ASD MB TEAM MACRO 02:20:29.93 +38:35 19,217
85 102 ZAFFIGNANI Massimo M 1968 M5 8 ASD BIKE AND FUN TEAM 02:20:40.18 +38:45 19,194
86 167 OLIVOTTO Marco M 1962 M6 8 TEAM ZANOLINI BIKE 02:20:44.68 +38:50 19,184
87 207 CODARIN Marco M 1991 M1 10 ASD RUNNING WORLD 02:20:49.93 +38:55 19,172
88 46 MAZZUCOTELLI Simona F 1977 DE 3 GS MASSI' SUPERMERCATI 02:20:58.43 +39:04 19,152
89 237 OBWEXER Manfred M 1969 M5 9 INDIVIDUALE 02:22:28.68 +40:34 18,950
90 213 VALLICELLA Zeno M 1966 M6 9 US VERONA ASD 02:22:43.93 +40:49 18,917
91 235 TAVERNAR Franco M 1957 M7 1 ASD PELLEGRIN CYCLING TEAM 02:23:20.93 +41:26 18,835
92 210 SIGHEL Andrea M 1979 M3 12 GSA PENNE SPRINT 02:23:27.69 +41:33 18,820
93 247 FACCIO Giacinto M 1966 M6 10 TEAM EXECUTIVE 02:24:24.69 +42:30 18,697
94 240 COSLOP Giovanni M 1960 M7 2 TEAM BSR 02:24:35.36 +42:41 18,674
95 43 MARINELLI Camilla F 1999 DE 4 ASD PEDALE FIDENTINO 02:24:41.19 +42:46 18,661
96 226 RUSTICHELLI Simone M 1985 M2 10 GS SPORTISSIMO TOP LEVEL 02:26:03.19 +44:08 18,486
97 227 CRISTINI Alessandro M 1980 M3 13 MDL RACING CREW ASD 02:26:22.45 +44:28 18,446
98 56 SASSANO Alessandra F 1994 W1 1 TEAM SELLA BIKE 02:26:31.70 +44:37 18,426
99 212 BUSETTI Leonardo M 1986 M2 11 ASD PREDAIA BIKE TEAM 02:26:40.45 +44:46 18,408
100 128 FRANCESCONI Matteo M 1986 M2 12 TEAM LAPIERRE - TRENTINO - ALE' 02:26:44.20 +44:49 18,400
101 209 D'AMBROSIO Matteo M 1986 M2 13 ASD ALPENJET 02:26:48.95 +44:54 18,390
102 92 GIUBERTONI Andrea M 1975 M4 10 ASD SC FORMIGOSA 02:28:07.95 +46:13 18,227
103 134 BECCARELLO Fabio M 1995 ELMT 13 MTB CLUB GAERNE 02:28:11.45 +46:17 18,220
104 25 MUSSATTI Michael M 2004 JU 5 OMAP CICLI ANDREIS 02:28:14.45 +46:20 18,214
105 136 PANZETTA Stefano M 1973 M4 11 ASD GS CICLOAMATATORI CASTELMASSA 02:29:48.46 +47:54 18,023
106 57 TOSADORI Orietta F 1971 W2 1 TEAM SILDOM GARDA 02:31:19.71 +49:25 17,842
107 175 FRANCISCI Giacomo M 1994 ELMT 14 ASD PREDAIA BIKE TEAM 02:33:02.72 +51:08 17,642
108 205 STOLL Markus M 1965 M6 11 RH RACING KRONPLATZKING 02:33:08.72 +51:14 17,630
109 7 CARRARO Tiziano M 1985 OPEN 13 ASD CHERO GROUP TEAM SFRENATI 02:33:49.97 +51:55 17,552
110 218 CROCE Ivan M 1965 M6 12 OMAP CICLI ANDREIS 02:34:35.72 +52:41 17,465
111 229 DEPAOLI Roberto M 1969 M5 10 SC AVIO 02:35:13.48 +53:19 17,394
112 131 PAONE Andreas M 1982 M2 14 SC ALTAIR ASD 02:35:17.48 +53:23 17,387
113 49 LUCCA Vanessa F 2002 DE 5 GS LAGORAI BIKE 02:35:20.98 +53:26 17,380
114 44 GASSER Lara F 2003 DJ 2 AMATEUR BIKE CLUB KLAUSEN 02:35:22.48 +53:28 17,377
115 243 BUSETTI Mirko M 1974 M4 12 ASD PREDAIA BIKE TEAM 02:37:58.98 +56:04 17,090
116 138 SARTORI Ivan M 1977 M3 14 GS LAGORAI BIKE 02:39:52.49 +57:58 16,888
117 203 BAGNI Massimo M 1971 M5 11 TEAM SCULAZZO ITALIA 02:41:47.50 +59:53 16,688
118 182 BONDESAN Matteo M 1981 M3 15 TEAM ZANOLINI BIKE 02:42:24.00 +01:00:29 16,626
119 234 MAZZAFERRO Gianluca M 1978 M3 16 POLISPORTIVA BERSNTOL A.DILETTANTI 02:45:21.26 +01:03:27 16,329
120 54 NEGRA Cecilia F 1979 W2 2 ASD BIKE AND FUN TEAM 02:45:42.76 +01:03:48 16,293

Classifiche Elaborate da SMS Sport


Pag. 2/3
VAL DI NON BIKE
CAVARENO (TN) 26/09/2021
UNICO (45 KM)

Pos Nr. Nominativo Atleta G Nato il Cat Pos Nome Squadra Tempo Gap Km/h
121 52 LIZZI Silvia F 1983 W1 2 BIKE MOVEMENT - TRENTINOERBE 02:48:32.52 +01:06:38 16,020
122 215 TONEZZER Luca M 1977 M3 17 BIKE MOVEMENT - TRENTINOERBE 02:48:32.77 +01:06:38 16,019
123 159 SACCO Aldo M 1970 M5 12 KTM TORRE BIKE 02:49:47.53 +01:07:53 15,902
124 208 BASSETTI Andrea M 1991 M1 11 VERTICAL SPORT KTM TEAM 02:58:01.55 +01:16:07 15,166
125 217 LIZZI Paolo M 1955 M8 2 AR6 - NICOLAI DH TEAM 03:01:06.81 +01:19:12 14,908
126 238 MATTIUZZO Maurizio M 1959 M7 3 ZERO 5 BIKE TEAM 03:02:02.57 +01:20:08 14,832
127 244 ANSELMI Andrea M 1983 M2 15 INDIVIDUALE 03:08:58.84 +01:27:04 14,287
128 202 BEGALI Nicola M 1976 M4 13 OMAP CICLI ANDREIS 03:24:38.39 +01:42:44 13,194
129 117 BERGAMO Simon M 1975 M4 14 SC MERAN ZORZI KÄLTETECHNIK 03:31:59.17 +01:50:04 12,737